Time;durP1;ratioP1;P1;durP2;ratioP2;P2;SDS_P1;SDS_P2;PMS_P1;PMS_P2;Temp;Humidity;BMP_temperature;BMP_pressure;BME280_temperature;BME280_humidity;BME280_pressure;Samples;Min_cycle;Max_cycle;Signal;HPM_P1;HPM_P2
2022/07/13 00:00:35;;;;;;;2.57;2.37;;;21.40;99.90;;;;;;5113707;28;20888;-79
2022/07/13 00:03:04;;;;;;;3.40;2.80;;;21.40;99.90;;;;;;5115296;28;20474;-78
2022/07/13 00:05:32;;;;;;;3.90;3.03;;;21.40;99.90;;;;;;5113227;28;20859;-77
2022/07/13 00:08:00;;;;;;;3.03;2.67;;;21.40;99.90;;;;;;5115658;28;20439;-79
2022/07/13 00:10:30;;;;;;;4.37;3.10;;;21.30;99.90;;;;;;5113247;28;20538;-78
2022/07/13 00:12:58;;;;;;;2.90;2.60;;;21.30;99.90;;;;;;5115076;28;20475;-79
2022/07/13 00:15:26;;;;;;;3.40;2.80;;;21.30;99.90;;;;;;5113862;28;20522;-78
2022/07/13 00:17:54;;;;;;;2.60;2.13;;;21.30;99.90;;;;;;5115520;28;20865;-78
2022/07/13 00:20:22;;;;;;;4.33;2.77;;;21.30;99.90;;;;;;5114510;28;20960;-78
2022/07/13 00:22:51;;;;;;;2.83;2.43;;;21.30;99.90;;;;;;5115239;28;20459;-78
2022/07/13 00:25:19;;;;;;;2.47;2.27;;;21.20;99.90;;;;;;5115397;28;20952;-78
2022/07/13 00:27:49;;;;;;;3.20;2.73;;;21.20;99.90;;;;;;5113932;28;20454;-78
2022/07/13 00:30:17;;;;;;;2.60;2.40;;;21.20;99.90;;;;;;5113707;28;20451;-78
2022/07/13 00:32:45;;;;;;;2.73;2.40;;;21.20;99.90;;;;;;5113835;28;20953;-78
2022/07/13 00:35:13;;;;;;;2.50;2.30;;;21.20;99.90;;;;;;5114656;28;20466;-78
2022/07/13 00:37:43;;;;;;;4.30;2.60;;;21.10;99.90;;;;;;5114853;28;20457;-78
2022/07/13 00:40:12;;;;;;;2.70;2.50;;;21.10;99.90;;;;;;5115685;28;20496;-77
2022/07/13 00:42:40;;;;;;;3.20;2.37;;;21.10;99.90;;;;;;5117166;28;20554;-77
2022/07/13 00:45:10;;;;;;;2.80;2.27;;;21.10;99.90;;;;;;5118863;28;20960;-77
2022/07/13 00:47:39;;;;;;;2.20;2.00;;;21.10;99.90;;;;;;5119145;28;20474;-78
2022/07/13 00:50:08;;;;;;;2.27;2.07;;;21.10;99.90;;;;;;5120287;28;20500;-78
2022/07/13 00:52:38;;;;;;;4.30;2.60;;;21.10;99.90;;;;;;5117115;28;20459;-78
2022/07/13 00:55:09;;;;;;;4.40;3.03;;;21.10;99.90;;;;;;5116954;28;20872;-76
2022/07/13 00:57:38;;;;;;;2.77;2.20;;;21.10;99.90;;;;;;5117726;28;20427;-77
2022/07/13 01:00:11;;;;;;;2.47;2.27;;;21.00;99.90;;;;;;5117737;28;20507;-78
2022/07/13 01:02:39;;;;;;;2.30;2.10;;;21.00;99.90;;;;;;5119698;28;20554;-78
2022/07/13 01:05:10;;;;;;;3.13;2.27;;;21.00;99.90;;;;;;5118136;28;20451;-78
2022/07/13 01:07:38;;;;;;;3.20;2.60;;;21.00;99.90;;;;;;5120332;28;20424;-79
2022/07/13 01:10:10;;;;;;;2.40;2.20;;;21.00;99.90;;;;;;5117122;28;20512;-79
2022/07/13 01:12:40;;;;;;;4.17;2.47;;;21.00;99.90;;;;;;5118197;28;20416;-78
2022/07/13 01:15:10;;;;;;;2.70;2.47;;;21.00;99.90;;;;;;5117363;28;20442;-79
2022/07/13 01:17:39;;;;;;;2.37;2.17;;;21.00;99.90;;;;;;5116400;28;20526;-77
2022/07/13 01:20:10;;;;;;;5.17;3.13;;;20.90;99.90;;;;;;5116922;28;20492;-77
2022/07/13 01:22:42;;;;;;;3.87;2.60;;;21.00;99.90;;;;;;5117076;28;20459;-78
2022/07/13 01:25:14;;;;;;;2.77;2.47;;;20.90;99.90;;;;;;5116445;28;20447;-78
2022/07/13 01:27:44;;;;;;;3.40;2.87;;;20.90;99.90;;;;;;5116767;28;20879;-78
2022/07/13 01:30:12;;;;;;;3.43;2.83;;;20.90;99.90;;;;;;5117356;28;20431;-78
2022/07/13 01:32:46;;;;;;;3.13;2.93;;;20.90;99.90;;;;;;5116796;28;20451;-78
2022/07/13 01:35:14;;;;;;;2.70;2.50;;;20.80;99.90;;;;;;5116913;28;20982;-78
2022/07/13 01:37:43;;;;;;;2.80;2.40;;;20.80;99.90;;;;;;5116467;28;20983;-77
2022/07/13 01:40:14;;;;;;;4.37;3.00;;;20.80;99.90;;;;;;5115715;28;20466;-79
2022/07/13 01:42:43;;;;;;;2.83;2.63;;;20.80;99.90;;;;;;5115886;28;20463;-76
2022/07/13 01:45:13;;;;;;;3.90;2.80;;;20.80;99.90;;;;;;5115868;28;20534;-77
2022/07/13 01:47:42;;;;;;;3.33;2.90;;;20.80;99.90;;;;;;5115585;28;21043;-77
2022/07/13 01:50:12;;;;;;;2.80;2.60;;;20.80;99.90;;;;;;5115551;28;20443;-77
2022/07/13 01:52:41;;;;;;;2.93;2.70;;;20.80;99.90;;;;;;5117476;28;21001;-79
2022/07/13 01:55:10;;;;;;;3.13;2.60;;;20.70;99.90;;;;;;5115386;28;20531;-77
2022/07/13 01:57:42;;;;;;;3.47;2.70;;;20.70;99.90;;;;;;5115821;28;20459;-76
2022/07/13 02:00:13;;;;;;;3.80;3.50;;;20.70;99.90;;;;;;5116080;28;20442;-76
2022/07/13 02:02:42;;;;;;;2.87;2.67;;;20.70;99.90;;;;;;5117128;28;20782;-79
2022/07/13 02:05:14;;;;;;;2.80;2.60;;;20.70;99.90;;;;;;5115734;28;21005;-79
2022/07/13 02:07:43;;;;;;;3.07;2.33;;;20.70;99.90;;;;;;5118238;28;20817;-79
2022/07/13 02:10:13;;;;;;;3.40;3.10;;;20.70;99.90;;;;;;5115156;28;20458;-77
2022/07/13 02:12:42;;;;;;;4.27;2.90;;;20.60;99.90;;;;;;5115838;28;20443;-78
2022/07/13 02:15:12;;;;;;;6.03;3.40;;;20.60;99.90;;;;;;5115129;28;20808;-76
2022/07/13 02:17:40;;;;;;;3.50;3.20;;;20.60;99.90;;;;;;5115256;28;20550;-76
2022/07/13 02:20:09;;;;;;;3.80;2.57;;;20.60;99.90;;;;;;5115122;28;20443;-78
2022/07/13 02:22:42;;;;;;;3.20;2.90;;;20.60;99.90;;;;;;5117086;28;20976;-79
2022/07/13 02:25:11;;;;;;;3.17;2.77;;;20.60;99.90;;;;;;5116071;28;20455;-77
2022/07/13 02:27:41;;;;;;;3.53;3.23;;;20.60;99.90;;;;;;5114652;28;21023;-76
2022/07/13 02:30:13;;;;;;;3.43;3.17;;;20.60;99.90;;;;;;5115650;28;20475;-77
2022/07/13 02:32:42;;;;;;;3.10;2.80;;;20.60;99.90;;;;;;5114631;28;20530;-78
2022/07/13 02:35:11;;;;;;;3.03;2.83;;;20.60;99.90;;;;;;5114767;28;20431;-78
2022/07/13 02:37:40;;;;;;;3.40;3.03;;;20.60;99.90;;;;;;5115153;28;20535;-76
2022/07/13 02:40:10;;;;;;;3.27;3.03;;;20.60;99.90;;;;;;5114350;28;20496;-76
2022/07/13 02:42:47;;;;;;;4.17;3.27;;;20.60;99.90;;;;;;5115460;28;20447;-78
2022/07/13 02:45:15;;;;;;;3.57;3.27;;;20.60;99.90;;;;;;5117211;28;21078;-77
2022/07/13 02:47:44;;;;;;;3.10;2.80;;;20.50;99.90;;;;;;5115476;28;20527;-79
2022/07/13 02:50:13;;;;;;;3.80;2.87;;;20.50;99.90;;;;;;5114000;28;20443;-79
2022/07/13 02:52:42;;;;;;;4.37;2.63;;;20.50;99.90;;;;;;5113855;28;20840;-76
2022/07/13 02:55:10;;;;;;;3.67;3.37;;;20.60;99.90;;;;;;5114221;28;20956;-76
2022/07/13 02:57:40;;;;;;;3.23;3.00;;;20.50;99.90;;;;;;5113864;28;20443;-78
2022/07/13 03:00:12;;;;;;;3.17;2.77;;;20.50;99.90;;;;;;5114302;28;20884;-78
2022/07/13 03:02:41;;;;;;;3.40;3.00;;;20.50;99.90;;;;;;5115864;28;20436;-79
2022/07/13 03:05:13;;;;;;;3.43;3.13;;;20.50;99.90;;;;;;5114969;28;20456;-78
2022/07/13 03:07:41;;;;;;;3.27;3.07;;;20.50;99.90;;;;;;5113834;28;20508;-77
2022/07/13 03:10:10;;;;;;;3.80;3.50;;;20.50;99.90;;;;;;5114177;28;20576;-77
2022/07/13 03:12:41;;;;;;;3.47;3.17;;;20.50;99.90;;;;;;5117253;28;20435;-77
2022/07/13 03:15:12;;;;;;;3.40;3.20;;;20.50;99.90;;;;;;5114520;28;20435;-79
2022/07/13 03:17:41;;;;;;;4.70;3.37;;;20.50;99.90;;;;;;5113998;28;20455;-77
2022/07/13 03:20:12;;;;;;;3.83;3.10;;;20.40;99.90;;;;;;5114773;28;20439;-77
2022/07/13 03:22:41;;;;;;;3.57;3.27;;;20.50;99.90;;;;;;5114967;28;20448;-78
2022/07/13 03:25:11;;;;;;;4.00;3.67;;;20.50;99.90;;;;;;5114422;28;20459;-77
2022/07/13 03:27:48;;;;;;;3.93;3.60;;;20.40;99.90;;;;;;5114727;28;20435;-79
2022/07/13 03:30:17;;;;;;;3.13;2.83;;;20.50;99.90;;;;;;5114661;28;20436;-79
2022/07/13 03:32:45;;;;;;;3.70;3.03;;;20.40;99.90;;;;;;5115263;28;20807;-79
2022/07/13 03:35:15;;;;;;;3.97;3.60;;;20.40;99.90;;;;;;5114991;28;20439;-78
2022/07/13 03:37:46;;;;;;;3.40;3.20;;;20.40;99.90;;;;;;5114542;28;20816;-78
2022/07/13 03:40:15;;;;;;;4.40;4.00;;;20.40;99.90;;;;;;5115025;28;20458;-78
2022/07/13 03:42:43;;;;;;;4.63;4.23;;;20.40;99.90;;;;;;5114724;28;20481;-77
2022/07/13 03:45:11;;;;;;;6.90;5.20;;;20.40;99.90;;;;;;5114348;28;20475;-78
2022/07/13 03:47:41;;;;;;;5.30;4.90;;;20.40;99.90;;;;;;5114196;28;20435;-78
2022/07/13 03:50:10;;;;;;;9.00;6.70;;;20.40;99.90;;;;;;5114349;28;20431;-81
2022/07/13 03:52:44;;;;;;;7.03;6.33;;;20.40;99.90;;;;;;5115458;28;20443;-80
2022/07/13 03:55:14;;;;;;;5.87;5.37;;;20.40;99.90;;;;;;5116395;28;20531;-80
2022/07/13 03:57:44;;;;;;;5.37;4.87;;;20.40;99.90;;;;;;5115426;28;20539;-81
2022/07/13 04:00:14;;;;;;;4.23;3.90;;;20.40;99.90;;;;;;5115181;28;20538;-80
2022/07/13 04:02:48;;;;;;;4.00;3.70;;;20.40;99.90;;;;;;5115473;28;20443;-81
2022/07/13 04:05:18;;;;;;;4.73;4.20;;;20.40;99.90;;;;;;5115022;28;20467;-80
2022/07/13 04:07:46;;;;;;;4.23;3.93;;;20.40;99.90;;;;;;5115123;28;20450;-81
2022/07/13 04:10:18;;;;;;;4.93;4.53;;;20.40;99.90;;;;;;5114997;28;20458;-81
2022/07/13 04:12:47;;;;;;;4.53;4.13;;;20.40;99.90;;;;;;5115521;28;20474;-80
2022/07/13 04:15:16;;;;;;;4.93;4.53;;;20.40;99.90;;;;;;5115083;28;20450;-81
2022/07/13 04:17:45;;;;;;;5.27;4.77;;;20.40;99.90;;;;;;5117810;28;20438;-79
2022/07/13 04:20:15;;;;;;;5.40;4.83;;;20.40;99.90;;;;;;5118707;28;20454;-80
2022/07/13 04:22:46;;;;;;;5.63;5.13;;;20.40;99.90;;;;;;5119478;28;20439;-78
2022/07/13 04:25:16;;;;;;;5.53;5.03;;;20.40;99.90;;;;;;5119116;28;20462;-79
2022/07/13 04:27:47;;;;;;;4.70;4.33;;;20.40;99.90;;;;;;5119501;28;20830;-80
2022/07/13 04:30:16;;;;;;;4.63;4.23;;;20.50;99.90;;;;;;5118465;28;20447;-80
2022/07/13 04:32:45;;;;;;;4.80;4.40;;;20.50;99.90;;;;;;5118797;28;20779;-80
2022/07/13 04:35:15;;;;;;;5.70;4.50;;;20.50;99.90;;;;;;5118372;28;20530;-80
2022/07/13 04:37:46;;;;;;;5.13;3.87;;;20.50;99.90;;;;;;5119424;28;20434;-79
2022/07/13 04:40:15;;;;;;;4.30;3.90;;;20.50;99.90;;;;;;5118180;28;20471;-80
2022/07/13 04:42:43;;;;;;;4.97;4.57;;;20.50;99.90;;;;;;5118517;28;20451;-79
2022/07/13 04:45:12;;;;;;;7.83;4.27;;;20.50;99.90;;;;;;5118491;28;20475;-80
2022/07/13 04:47:40;;;;;;;4.60;4.20;;;20.50;99.90;;;;;;5119483;28;20439;-79
2022/07/13 04:50:09;;;;;;;4.93;4.53;;;20.50;99.90;;;;;;5120522;28;20459;-79
2022/07/13 04:52:39;;;;;;;5.53;4.50;;;20.50;99.90;;;;;;5121264;28;20475;-82
2022/07/13 04:55:09;;;;;;;4.40;3.97;;;20.50;99.90;;;;;;5120120;28;20462;-81
2022/07/13 04:57:38;;;;;;;5.37;4.53;;;20.50;99.90;;;;;;5121437;28;20534;-79
2022/07/13 05:00:09;;;;;;;4.37;3.97;;;20.50;99.90;;;;;;5118597;28;20447;-80
2022/07/13 05:02:38;;;;;;;5.70;5.27;;;20.60;99.90;;;;;;5118744;28;20538;-79
2022/07/13 05:05:07;;;;;;;5.30;4.80;;;20.60;99.90;;;;;;5118434;28;20503;-80
2022/07/13 05:07:36;;;;;;;5.70;4.00;;;20.60;99.90;;;;;;5118687;28;20447;-81
2022/07/13 05:10:10;;;;;;;6.13;4.50;;;20.60;99.90;;;;;;5118422;28;20533;-81
2022/07/13 05:12:44;;;;;;;7.03;4.63;;;20.60;99.90;;;;;;5118549;28;20450;-80
2022/07/13 05:15:14;;;;;;;4.80;4.40;;;20.70;99.90;;;;;;5118162;28;20820;-79
2022/07/13 05:17:42;;;;;;;6.10;5.37;;;20.70;99.90;;;;;;5117976;28;20573;-81
2022/07/13 05:20:11;;;;;;;5.50;5.10;;;20.70;99.90;;;;;;5118309;28;20487;-80
2022/07/13 05:22:45;;;;;;;5.93;4.70;;;20.80;99.90;;;;;;5118633;28;20458;-80
2022/07/13 05:25:18;;;;;;;4.87;4.47;;;20.80;99.90;;;;;;5119340;28;20473;-81
2022/07/13 05:27:47;;;;;;;5.47;4.97;;;20.80;99.90;;;;;;5118279;28;20435;-81
2022/07/13 05:30:15;;;;;;;6.47;5.87;;;20.90;99.90;;;;;;5117250;28;20438;-79
2022/07/13 05:32:43;;;;;;;4.93;4.53;;;20.90;99.90;;;;;;5118556;28;20443;-82
2022/07/13 05:35:12;;;;;;;5.47;5.07;;;20.90;99.90;;;;;;5119487;28;20428;-80
2022/07/13 05:37:43;;;;;;;5.87;5.30;;;21.00;99.90;;;;;;5118839;28;20435;-80
2022/07/13 05:40:13;;;;;;;6.13;5.53;;;21.00;99.90;;;;;;5117655;28;20447;-80
2022/07/13 05:42:42;;;;;;;6.03;5.53;;;21.00;99.90;;;;;;5117198;28;20936;-79
2022/07/13 05:45:11;;;;;;;6.60;5.20;;;21.10;99.90;;;;;;5117464;28;20475;-80
2022/07/13 05:47:44;;;;;;;5.43;4.93;;;21.10;99.90;;;;;;5117214;28;20443;-81
2022/07/13 05:50:14;;;;;;;7.70;4.70;;;21.20;99.90;;;;;;5118442;28;20448;-81
2022/07/13 05:52:44;;;;;;;7.20;4.70;;;21.20;99.90;;;;;;5117081;28;20896;-80
2022/07/13 05:55:14;;;;;;;5.70;5.20;;;21.30;99.90;;;;;;5116938;28;20439;-79
2022/07/13 05:57:44;;;;;;;5.20;4.70;;;21.30;99.90;;;;;;5118488;28;20927;-79
2022/07/13 06:00:14;;;;;;;5.00;4.60;;;21.40;99.90;;;;;;5118393;28;20411;-79
2022/07/13 06:02:43;;;;;;;5.50;4.97;;;21.40;99.90;;;;;;5119145;28;20447;-81
2022/07/13 06:05:11;;;;;;;7.70;5.30;;;21.40;99.90;;;;;;5118434;28;20481;-80
2022/07/13 06:07:40;;;;;;;5.73;5.10;;;21.50;99.90;;;;;;5119520;28;20447;-80
2022/07/13 06:10:09;;;;;;;5.50;4.83;;;21.60;99.90;;;;;;5119499;28;20439;-81
2022/07/13 06:12:37;;;;;;;8.10;5.40;;;21.60;99.90;;;;;;5119449;28;20453;-81
2022/07/13 06:15:08;;;;;;;6.40;4.67;;;21.60;99.90;;;;;;5119994;28;20488;-81
2022/07/13 06:17:36;;;;;;;5.40;5.00;;;21.70;99.90;;;;;;5124216;28;20423;-80
2022/07/13 06:20:05;;;;;;;5.00;4.50;;;21.70;99.90;;;;;;5120043;28;20443;-79
2022/07/13 06:22:34;;;;;;;5.50;5.03;;;21.80;99.90;;;;;;5117947;28;20877;-80
2022/07/13 06:25:03;;;;;;;5.27;4.87;;;21.80;99.90;;;;;;5117441;28;20558;-81
2022/07/13 06:27:31;;;;;;;5.00;4.60;;;21.80;99.90;;;;;;5117404;28;20457;-81
2022/07/13 06:29:59;;;;;;;6.10;5.60;;;21.90;99.90;;;;;;5116997;28;20504;-79
2022/07/13 06:32:28;;;;;;;5.50;5.07;;;21.90;99.90;;;;;;5118683;28;20447;-78
2022/07/13 06:34:57;;;;;;;5.20;4.80;;;22.00;99.90;;;;;;5117800;28;20522;-79
2022/07/13 06:37:28;;;;;;;4.97;4.53;;;22.00;99.90;;;;;;5118572;28;20484;-78
2022/07/13 06:40:14;;;;;;;5.43;5.03;;;22.10;99.90;;;;;;5116629;28;20446;-80
2022/07/13 06:42:43;;;;;;;6.30;5.80;;;22.10;99.90;;;;;;5116805;28;20495;-78
2022/07/13 06:45:12;;;;;;;6.40;5.80;;;22.10;99.90;;;;;;5116148;28;20455;-80
2022/07/13 06:47:42;;;;;;;5.83;5.33;;;22.20;99.90;;;;;;5116246;28;20485;-79
2022/07/13 06:50:11;;;;;;;6.17;5.60;;;22.20;99.90;;;;;;5116464;28;20790;-79
2022/07/13 06:52:40;;;;;;;6.30;5.70;;;22.20;99.90;;;;;;5116633;28;20463;-79
2022/07/13 06:55:09;;;;;;;5.50;5.10;;;22.30;99.90;;;;;;5116336;28;20486;-80
2022/07/13 06:57:38;;;;;;;6.03;5.53;;;22.30;99.90;;;;;;5116251;28;20514;-81
2022/07/13 07:00:08;;;;;;;6.03;5.53;;;22.40;99.90;;;;;;5116106;28;20544;-81
2022/07/13 07:02:37;;;;;;;7.40;5.63;;;22.40;99.90;;;;;;5117251;28;20554;-80
2022/07/13 07:05:09;;;;;;;5.77;5.27;;;22.50;99.90;;;;;;5118141;28;20443;-79
2022/07/13 07:07:38;;;;;;;6.60;5.07;;;22.50;99.90;;;;;;5118247;28;20455;-80
2022/07/13 07:10:07;;;;;;;12.53;7.57;;;22.60;99.90;;;;;;5116569;28;20439;-80
2022/07/13 07:12:35;;;;;;;5.63;5.17;;;22.70;99.90;;;;;;5117805;28;20469;-80
2022/07/13 07:15:06;;;;;;;5.30;4.80;;;22.80;99.90;;;;;;5116888;28;20496;-82
2022/07/13 07:17:43;;;;;;;6.40;5.77;;;22.80;99.90;;;;;;5118231;28;20844;-80
2022/07/13 07:20:13;;;;;;;4.80;4.40;;;22.90;99.90;;;;;;5116170;28;20898;-81
2022/07/13 07:22:41;;;;;;;6.53;5.00;;;23.00;99.90;;;;;;5116284;28;20546;-80
2022/07/13 07:25:10;;;;;;;6.93;4.90;;;23.10;99.90;;;;;;5116603;28;20983;-81
2022/07/13 07:27:41;;;;;;;5.20;4.50;;;23.10;99.90;;;;;;5116214;28;20507;-79
2022/07/13 07:30:10;;;;;;;4.47;4.03;;;23.20;99.90;;;;;;5116129;28;20446;-80
2022/07/13 07:32:39;;;;;;;4.53;4.13;;;23.30;99.90;;;;;;5117446;28;20471;-80
2022/07/13 07:35:09;;;;;;;4.57;4.17;;;23.30;99.90;;;;;;5116659;28;20453;-80
2022/07/13 07:37:39;;;;;;;5.53;3.80;;;23.40;99.90;;;;;;5117133;28;20454;-79
2022/07/13 07:40:10;;;;;;;5.90;3.53;;;23.40;99.90;;;;;;5117515;28;20975;-81
2022/07/13 07:42:38;;;;;;;3.63;3.33;;;23.40;99.90;;;;;;5115954;28;20467;-79
2022/07/13 07:45:08;;;;;;;4.93;3.10;;;23.50;99.90;;;;;;5115756;28;20494;-82
2022/07/13 07:47:36;;;;;;;3.60;3.30;;;23.50;99.90;;;;;;5116015;28;21014;-80
2022/07/13 07:50:06;;;;;;;4.20;3.17;;;23.60;99.90;;;;;;5115728;28;20453;-82
2022/07/13 07:52:35;;;;;;;4.43;3.30;;;23.60;99.90;;;;;;5116006;28;20447;-81
2022/07/13 07:55:23;;;;;;;3.07;2.67;;;23.70;99.90;;;;;;5117313;28;20781;-81
2022/07/13 07:57:52;;;;;;;3.73;2.77;;;23.70;99.90;;;;;;5116981;28;20979;-80
2022/07/13 08:00:21;;;;;;;2.93;2.73;;;23.80;99.90;;;;;;5116476;28;20470;-82
2022/07/13 08:02:49;;;;;;;3.43;3.13;;;23.80;99.90;;;;;;5115321;28;20451;-81
2022/07/13 08:05:18;;;;;;;4.30;2.60;;;23.90;99.90;;;;;;5116721;28;20825;-80
2022/07/13 08:07:48;;;;;;;4.37;2.87;;;24.00;99.90;;;;;;5116691;28;20467;-78
2022/07/13 08:10:17;;;;;;;7.07;2.97;;;24.00;99.90;;;;;;5116541;28;20435;-81
2022/07/13 08:13:04;;;;;;;3.30;2.83;;;24.10;99.90;;;;;;5115379;28;21063;-79
2022/07/13 08:15:33;;;;;;;3.40;2.83;;;24.20;99.90;;;;;;5116803;28;20822;-80
2022/07/13 08:18:01;;;;;;;3.73;2.77;;;24.30;99.90;;;;;;5115374;28;20462;-80
2022/07/13 08:20:30;;;;;;;2.80;2.60;;;24.40;99.90;;;;;;5115306;28;20455;-78
2022/07/13 08:22:58;;;;;;;3.20;2.90;;;24.50;99.90;;;;;;5114739;28;21020;-79
2022/07/13 08:25:27;;;;;;;3.47;3.03;;;24.50;99.90;;;;;;5116360;28;20447;-82
2022/07/13 08:27:55;;;;;;;3.23;2.43;;;24.60;99.90;;;;;;5114597;28;20987;-80
2022/07/13 08:30:25;;;;;;;4.93;2.80;;;24.70;99.90;;;;;;5115730;28;20472;-79
2022/07/13 08:32:54;;;;;;;3.03;2.73;;;24.80;99.90;;;;;;5115177;28;20459;-80
2022/07/13 08:40:54;;;;;;;4.87;2.90;;;25.10;99.90;;;;;;5117324;28;20459;-80
2022/07/13 08:43:26;;;;;;;4.50;3.40;;;25.20;99.90;;;;;;5114887;28;20455;-80
2022/07/13 08:45:56;;;;;;;4.50;3.17;;;25.30;99.60;;;;;;5116188;28;20435;-80
2022/07/13 08:48:29;;;;;;;6.70;3.60;;;25.40;99.30;;;;;;5116317;28;20520;-81
2022/07/13 08:50:57;;;;;;;4.07;3.40;;;25.50;98.80;;;;;;5115405;28;20528;-80
2022/07/13 08:53:26;;;;;;;4.30;3.40;;;25.60;98.50;;;;;;5115482;28;20519;-81
2022/07/13 08:55:56;;;;;;;3.73;3.43;;;25.80;98.20;;;;;;5116292;28;20564;-81
2022/07/13 08:58:25;;;;;;;3.80;3.50;;;26.00;98.00;;;;;;5115428;28;20439;-81
2022/07/13 09:00:55;;;;;;;4.93;3.57;;;26.20;97.60;;;;;;5114537;28;20892;-80
2022/07/13 09:03:23;;;;;;;3.70;3.20;;;26.30;97.30;;;;;;5115705;28;20475;-80
2022/07/13 09:05:51;;;;;;;4.60;4.20;;;26.50;97.10;;;;;;5118642;28;20442;-82
2022/07/13 09:08:21;;;;;;;7.57;3.53;;;26.50;96.90;;;;;;5118719;28;20495;-82
2022/07/13 09:10:53;;;;;;;4.07;3.67;;;26.70;96.80;;;;;;5119769;28;20457;-80
2022/07/13 09:13:42;;;;;;;3.83;3.53;;;26.80;96.60;;;;;;5118578;28;20439;-80
2022/07/13 09:16:17;;;;;;;5.53;4.13;;;27.00;96.10;;;;;;5119698;28;20423;-80
2022/07/13 09:18:48;;;;;;;3.97;3.67;;;27.00;96.10;;;;;;5118747;28;20803;-82
2022/07/13 09:21:16;;;;;;;4.03;3.60;;;27.20;95.90;;;;;;5117979;28;20987;-81
2022/07/13 09:23:48;;;;;;;4.00;3.70;;;27.20;95.80;;;;;;5118459;28;20451;-79
2022/07/13 09:26:18;;;;;;;4.60;4.03;;;27.20;95.80;;;;;;5120394;28;20439;-80
2022/07/13 09:28:48;;;;;;;4.40;3.03;;;27.30;95.80;;;;;;5122406;28;20470;-82
2022/07/13 09:31:19;;;;;;;4.80;4.10;;;27.50;95.70;;;;;;5119764;28;20493;-81
2022/07/13 09:33:49;;;;;;;4.63;4.23;;;27.60;95.50;;;;;;5119230;28;20467;-82
2022/07/13 09:36:20;;;;;;;3.60;3.20;;;27.70;95.40;;;;;;5119564;28;20958;-81
2022/07/13 09:38:51;;;;;;;4.40;4.00;;;27.80;95.40;;;;;;5119953;28;20474;-81
2022/07/13 09:41:22;;;;;;;4.40;4.00;;;27.90;95.10;;;;;;5118286;28;20471;-81
2022/07/13 09:46:53;;;;;;;3.80;3.37;;;28.00;94.60;;;;;;5118060;28;20435;-81
2022/07/13 09:49:30;;;;;;;4.30;3.93;;;28.20;94.50;;;;;;5118925;28;20836;-80
2022/07/13 09:52:00;;;;;;;4.27;3.60;;;28.30;94.50;;;;;;5119119;28;20462;-79
2022/07/13 09:54:30;;;;;;;5.90;3.73;;;28.40;94.30;;;;;;5116987;28;20451;-80
2022/07/13 09:57:00;;;;;;;4.30;3.90;;;28.40;94.00;;;;;;5117531;28;20488;-81
2022/07/13 09:59:30;;;;;;;6.40;4.00;;;28.50;93.90;;;;;;5118764;28;20447;-81
2022/07/13 10:01:59;;;;;;;3.57;3.27;;;28.60;93.80;;;;;;5118092;28;20463;-81
2022/07/13 10:04:28;;;;;;;4.50;3.63;;;28.70;93.60;;;;;;5118587;28;20450;-81
2022/07/13 10:07:16;;;;;;;3.77;3.47;;;28.80;93.80;;;;;;5117390;28;20529;-79
2022/07/13 10:09:44;;;;;;;4.80;3.90;;;28.90;93.80;;;;;;5118258;28;20970;-79
2022/07/13 10:12:13;;;;;;;3.90;3.50;;;29.00;93.60;;;;;;5117183;28;20988;-79
2022/07/13 10:14:42;;;;;;;3.30;3.10;;;29.00;93.40;;;;;;5116798;28;20462;-80
2022/07/13 10:17:19;;;;;;;3.77;2.97;;;29.20;93.30;;;;;;5118612;28;20445;-80
2022/07/13 10:19:51;;;;;;;4.00;3.17;;;29.20;93.10;;;;;;5118741;28;20511;-78
2022/07/13 10:22:23;;;;;;;4.00;3.70;;;29.30;92.90;;;;;;5119160;28;20489;-80
2022/07/13 10:24:56;;;;;;;4.03;3.70;;;29.30;92.90;;;;;;5118911;28;20411;-83
2022/07/13 10:27:26;;;;;;;5.53;3.50;;;29.30;92.80;;;;;;5117786;28;20463;-78
2022/07/13 10:29:55;;;;;;;4.10;3.57;;;29.40;92.70;;;;;;5118046;28;20469;-78
2022/07/13 10:32:26;;;;;;;4.07;3.77;;;29.40;92.50;;;;;;5116476;28;20512;-80
2022/07/13 10:34:58;;;;;;;3.97;3.60;;;29.40;92.50;;;;;;5116135;28;20475;-79
2022/07/13 10:37:27;;;;;;;4.13;3.83;;;29.40;92.40;;;;;;5118099;28;20435;-80
2022/07/13 10:40:14;;;;;;;3.60;3.30;;;29.40;92.40;;;;;;5116562;28;20514;-80
2022/07/13 10:43:14;;;;;;;4.70;4.30;;;29.30;92.40;;;;;;5118667;28;20455;-81
2022/07/13 10:45:48;;;;;;;5.37;4.23;;;29.30;92.30;;;;;;5058171;28;20491;-79
2022/07/13 10:48:47;;;;;;;4.50;4.10;;;29.40;92.50;;;;;;5111107;28;20467;-81
2022/07/13 10:51:20;;;;;;;4.90;4.50;;;29.50;92.70;;;;;;5116808;28;20467;-80
2022/07/13 10:54:07;;;;;;;4.93;4.43;;;29.60;92.70;;;;;;5116330;28;20461;-79
2022/07/13 10:56:35;;;;;;;5.70;5.30;;;29.70;92.60;;;;;;5118076;28;20495;-80
2022/07/13 10:59:04;;;;;;;8.20;5.77;;;29.60;92.50;;;;;;5118613;28;20515;-81
2022/07/13 11:01:44;;;;;;;5.50;5.00;;;29.60;92.30;;;;;;5119712;28;20459;-81
2022/07/13 11:04:16;;;;;;;5.50;5.00;;;29.70;92.40;;;;;;5119702;28;20419;-80
2022/07/13 11:07:07;;;;;;;7.10;5.60;;;29.70;92.50;;;;;;5118079;28;20427;-82
2022/07/13 11:09:35;;;;;;;6.27;5.80;;;29.70;92.60;;;;;;5120191;28;20489;-81
2022/07/13 11:12:21;;;;;;;6.90;6.37;;;29.70;92.70;;;;;;5119610;28;20459;-79
2022/07/13 11:14:51;;;;;;;6.80;6.17;;;29.70;92.80;;;;;;5118384;28;20499;-80
2022/07/13 11:17:23;;;;;;;6.17;5.67;;;29.80;92.80;;;;;;5117940;28;20488;-83
2022/07/13 11:20:03;;;;;;;6.87;6.07;;;29.80;92.90;;;;;;5119055;28;20809;-80
2022/07/13 11:25:33;;;;;;;5.87;5.37;;;29.80;93.10;;;;;;5116281;28;20522;-80
2022/07/13 11:28:14;;;;;;;7.20;5.67;;;30.00;93.20;;;;;;5113971;28;20460;-80
2022/07/13 11:30:48;;;;;;;5.57;5.07;;;30.00;93.10;;;;;;5116965;28;20550;-81
2022/07/13 11:33:18;;;;;;;5.43;5.03;;;30.00;93.10;;;;;;5116647;28;20815;-80
2022/07/13 11:35:48;;;;;;;5.93;5.30;;;30.00;93.20;;;;;;5115980;28;20447;-80
2022/07/13 11:38:17;;;;;;;6.20;5.60;;;30.00;93.00;;;;;;5116216;28;20447;-79
2022/07/13 11:40:45;;;;;;;4.90;4.40;;;30.00;93.10;;;;;;5116725;28;20538;-80
2022/07/13 11:43:14;;;;;;;6.73;4.93;;;30.00;92.90;;;;;;5116302;28;20492;-80
2022/07/13 11:45:43;;;;;;;4.93;4.60;;;29.80;92.70;;;;;;5118301;28;20439;-82
2022/07/13 11:48:15;;;;;;;4.70;4.30;;;29.80;92.60;;;;;;5116516;28;20536;-80
2022/07/13 11:50:45;;;;;;;5.30;4.80;;;29.90;92.40;;;;;;5116119;28;20512;-81
2022/07/13 11:53:29;;;;;;;7.37;4.80;;;29.80;92.30;;;;;;5115993;28;20515;-79
2022/07/13 11:55:59;;;;;;;5.00;4.50;;;29.90;92.20;;;;;;5115312;28;20932;-79
2022/07/13 11:58:31;;;;;;;4.53;4.13;;;29.90;92.40;;;;;;5115799;28;20531;-79
2022/07/13 12:01:00;;;;;;;4.83;4.43;;;29.90;92.10;;;;;;5117764;28;20524;-83
2022/07/13 12:03:33;;;;;;;5.47;4.33;;;30.00;92.10;;;;;;5117603;28;21028;-79
2022/07/13 12:06:04;;;;;;;4.40;4.00;;;30.00;92.20;;;;;;5117371;28;20872;-79
2022/07/13 12:08:36;;;;;;;29.53;11.20;;;30.00;92.30;;;;;;5116329;28;20524;-80
2022/07/13 12:11:06;;;;;;;4.50;4.10;;;30.00;92.30;;;;;;5115201;28;20463;-79
2022/07/13 12:13:35;;;;;;;5.47;3.93;;;30.00;92.20;;;;;;5114871;28;20982;-80
2022/07/13 12:16:05;;;;;;;4.20;3.80;;;29.90;92.10;;;;;;5115273;28;20443;-81
2022/07/13 12:18:58;;;;;;;4.50;4.10;;;29.90;92.00;;;;;;5115170;28;20435;-79
2022/07/13 12:21:27;;;;;;;4.63;4.23;;;29.80;91.90;;;;;;5116661;28;20463;-80
2022/07/13 12:23:58;;;;;;;4.47;4.07;;;29.70;91.80;;;;;;5120428;28;20442;-80
2022/07/13 12:26:26;;;;;;;4.17;3.77;;;29.70;91.70;;;;;;5116587;28;20905;-82
2022/07/13 12:28:55;;;;;;;3.63;3.30;;;29.60;91.70;;;;;;5116452;28;20490;-80
2022/07/13 12:31:23;;;;;;;3.90;3.60;;;29.60;91.60;;;;;;5114864;28;20455;-80
2022/07/13 12:33:53;;;;;;;6.73;4.47;;;29.50;91.50;;;;;;5116406;28;20445;-79
2022/07/13 12:36:23;;;;;;;4.90;4.33;;;29.50;91.60;;;;;;5116744;28;20470;-80
2022/07/13 12:39:01;;;;;;;4.50;3.60;;;29.50;91.70;;;;;;5117536;28;20968;-79
2022/07/13 12:41:34;;;;;;;4.50;4.20;;;29.40;91.70;;;;;;5118965;28;20470;-82
2022/07/13 12:44:05;;;;;;;4.13;3.37;;;29.30;91.60;;;;;;5118933;28;20455;-81
2022/07/13 12:46:52;;;;;;;3.37;3.07;;;29.30;91.50;;;;;;5119124;28;20450;-82
2022/07/13 12:49:27;;;;;;;3.63;3.33;;;29.30;91.60;;;;;;5120610;28;20451;-80
2022/07/13 12:52:02;;;;;;;3.43;3.13;;;29.30;91.40;;;;;;5120222;28;20486;-82
2022/07/13 12:54:49;;;;;;;3.37;3.00;;;29.30;91.40;;;;;;5120046;28;20459;-80
2022/07/13 12:57:19;;;;;;;4.03;3.73;;;29.30;91.20;;;;;;5120058;28;20419;-78
2022/07/13 13:00:04;;;;;;;4.07;3.43;;;29.30;91.20;;;;;;5118511;28;20470;-79
2022/07/13 13:02:32;;;;;;;3.63;3.33;;;29.30;91.00;;;;;;5118799;28;20883;-79
2022/07/13 13:05:01;;;;;;;4.67;4.37;;;29.30;91.20;;;;;;5119523;28;20530;-80
2022/07/13 13:07:29;;;;;;;4.30;3.90;;;29.40;91.30;;;;;;5118368;28;20463;-80
2022/07/13 13:09:58;;;;;;;4.90;3.90;;;29.40;91.40;;;;;;5118349;28;20464;-80
2022/07/13 13:12:27;;;;;;;5.20;4.80;;;29.40;91.40;;;;;;5118378;28;20489;-82
2022/07/13 13:14:55;;;;;;;5.23;4.83;;;29.40;91.50;;;;;;5119936;28;20451;-81